Miskolc, Hungary
Current Conditions -  °F | °C
As of 5:30 AM on Saturday 25 Oct 2014 (Local Time) from LZKZ Reporting Station
Overcast Overcast  
Wind Chill: 34°   Ceiling: 3200
Heat Index: 39°   Visibility: 6mi
Dew Point: 34°   Wind: 7mph
Humidity: 81%   Direction: 40°NE
Pressure: 30.24"   Gusts: NA
Location:  48.1°N, 20.79°E
Report Text: LZKZ 250330Z 04006KT 9999 OVC032 04/01 Q1024
Loading
Personal Weather Stations






























Interactive Weather Map
Tropical Storm Tracking
New forecast layout! Learn more

10-Day Weather Forecast

Advertisements
Track Severe Weather on mobile